sensor_id;sensor_type;location;lat;lon;timestamp;pressure;altitude;pressure_sealevel;temperature;humidity
68329;BME280;55182;56.864;60.554;2023-04-30T00:00:33;75688.72;;;-143.60;39.64
68329;BME280;55182;56.864;60.554;2023-04-30T00:02:59;75692.72;;;-143.60;39.81
68329;BME280;55182;56.864;60.554;2023-04-30T00:05:24;75694.75;;;-143.60;39.70
68329;BME280;55182;56.864;60.554;2023-04-30T00:07:50;75690.72;;;-143.60;39.78
68329;BME280;55182;56.864;60.554;2023-04-30T00:10:15;75700.75;;;-143.60;39.58
68329;BME280;55182;56.864;60.554;2023-04-30T00:12:41;75696.75;;;-143.60;39.87
68329;BME280;55182;56.864;60.554;2023-04-30T00:15:06;75696.75;;;-143.60;39.41
68329;BME280;55182;56.864;60.554;2023-04-30T00:17:32;75698.75;;;-143.60;39.43
68329;BME280;55182;56.864;60.554;2023-04-30T00:19:57;75704.78;;;-143.60;39.67
68329;BME280;55182;56.864;60.554;2023-04-30T00:22:23;75724.88;;;-143.60;40.08
68329;BME280;55182;56.864;60.554;2023-04-30T00:24:48;75744.97;;;-143.60;40.12
68329;BME280;55182;56.864;60.554;2023-04-30T00:27:14;75769.09;;;-143.60;40.09
68329;BME280;55182;56.864;60.554;2023-04-30T00:29:39;75771.09;;;-143.60;39.85
68329;BME280;55182;56.864;60.554;2023-04-30T00:32:05;75763.06;;;-143.60;40.16
68329;BME280;55182;56.864;60.554;2023-04-30T00:34:30;75773.09;;;-143.60;40.11
68329;BME280;55182;56.864;60.554;2023-04-30T00:36:55;75775.09;;;-143.60;39.97
68329;BME280;55182;56.864;60.554;2023-04-30T00:39:21;75777.13;;;-143.60;40.17
68329;BME280;55182;56.864;60.554;2023-04-30T00:41:47;75779.13;;;-143.60;39.87
68329;BME280;55182;56.864;60.554;2023-04-30T00:44:13;75777.13;;;-143.60;40.00
68329;BME280;55182;56.864;60.554;2023-04-30T00:46:38;75773.09;;;-143.60;40.04
68329;BME280;55182;56.864;60.554;2023-04-30T00:49:04;75775.09;;;-143.60;40.10
68329;BME280;55182;56.864;60.554;2023-04-30T00:51:32;75775.09;;;-143.60;39.49
68329;BME280;55182;56.864;60.554;2023-04-30T00:53:59;75781.13;;;-143.60;39.41
68329;BME280;55182;56.864;60.554;2023-04-30T00:56:25;75771.09;;;-143.60;39.23
68329;BME280;55182;56.864;60.554;2023-04-30T00:58:50;75769.09;;;-143.60;39.34
68329;BME280;55182;56.864;60.554;2023-04-30T01:01:17;75773.09;;;-143.60;39.34
68329;BME280;55182;56.864;60.554;2023-04-30T01:03:42;75773.09;;;-143.60;39.62
68329;BME280;55182;56.864;60.554;2023-04-30T01:06:08;75769.09;;;-143.60;39.81
68329;BME280;55182;56.864;60.554;2023-04-30T01:08:34;75773.09;;;-143.60;39.92
68329;BME280;55182;56.864;60.554;2023-04-30T01:13:33;75767.06;;;-143.60;39.77
68329;BME280;55182;56.864;60.554;2023-04-30T01:16:09;75761.03;;;-143.60;39.86
68329;BME280;55182;56.864;60.554;2023-04-30T01:18:41;75761.03;;;-143.60;39.84
68329;BME280;55182;56.864;60.554;2023-04-30T01:21:07;75755.00;;;-143.60;39.96
68329;BME280;55182;56.864;60.554;2023-04-30T01:29:02;75753.00;;;-143.60;39.25
68329;BME280;55182;56.864;60.554;2023-04-30T01:31:27;75744.97;;;-143.60;39.29
68329;BME280;55182;56.864;60.554;2023-04-30T01:33:53;75749.00;;;-143.60;39.10
68329;BME280;55182;56.864;60.554;2023-04-30T01:36:38;75746.97;;;-143.60;38.70
68329;BME280;55182;56.864;60.554;2023-04-30T01:39:13;75742.97;;;-143.60;38.87
68329;BME280;55182;56.864;60.554;2023-04-30T01:41:46;75751.00;;;-143.60;38.76
68329;BME280;55182;56.864;60.554;2023-04-30T01:46:50;75753.00;;;-143.60;38.89
68329;BME280;55182;56.864;60.554;2023-04-30T01:51:47;75757.03;;;-143.60;38.76
68329;BME280;55182;56.864;60.554;2023-04-30T01:54:16;75753.00;;;-143.60;38.76
68329;BME280;55182;56.864;60.554;2023-04-30T01:56:45;75742.97;;;-143.60;38.80
68329;BME280;55182;56.864;60.554;2023-04-30T01:59:14;75732.91;;;-143.60;38.54
68329;BME280;55182;56.864;60.554;2023-04-30T02:01:40;75734.91;;;-143.60;38.33
68329;BME280;55182;56.864;60.554;2023-04-30T02:04:05;75732.91;;;-143.60;38.27
68329;BME280;55182;56.864;60.554;2023-04-30T02:06:31;75720.84;;;-143.60;38.49
68329;BME280;55182;56.864;60.554;2023-04-30T02:08:57;75728.91;;;-143.60;38.25
68329;BME280;55182;56.864;60.554;2023-04-30T02:11:22;75722.88;;;-143.60;38.23
68329;BME280;55182;56.864;60.554;2023-04-30T02:13:48;75714.84;;;-143.60;38.11
68329;BME280;55182;56.864;60.554;2023-04-30T02:16:13;75714.84;;;-143.60;38.12
68329;BME280;55182;56.864;60.554;2023-04-30T02:18:39;75708.81;;;-143.60;37.61
68329;BME280;55182;56.864;60.554;2023-04-30T02:21:04;75700.75;;;-143.60;38.59
68329;BME280;55182;56.864;60.554;2023-04-30T02:23:30;75708.81;;;-143.60;38.31
68329;BME280;55182;56.864;60.554;2023-04-30T02:25:55;75708.81;;;-143.60;37.61
68329;BME280;55182;56.864;60.554;2023-04-30T02:28:21;75706.78;;;-143.60;37.68
68329;BME280;55182;56.864;60.554;2023-04-30T02:30:46;75702.78;;;-143.60;37.94
68329;BME280;55182;56.864;60.554;2023-04-30T02:33:11;75696.75;;;-143.60;38.19
68329;BME280;55182;56.864;60.554;2023-04-30T02:35:38;75688.72;;;-143.60;37.61
68329;BME280;55182;56.864;60.554;2023-04-30T02:38:04;75674.66;;;-143.60;37.36
68329;BME280;55182;56.864;60.554;2023-04-30T02:40:29;75676.66;;;-143.60;37.62
68329;BME280;55182;56.864;60.554;2023-04-30T02:42:55;75660.59;;;-143.60;37.59
68329;BME280;55182;56.864;60.554;2023-04-30T02:45:20;75660.59;;;-143.60;37.79
68329;BME280;55182;56.864;60.554;2023-04-30T02:47:45;75654.56;;;-143.60;37.78
68329;BME280;55182;56.864;60.554;2023-04-30T02:50:11;75646.53;;;-143.60;37.62
68329;BME280;55182;56.864;60.554;2023-04-30T02:52:36;75640.50;;;-143.60;37.65
68329;BME280;55182;56.864;60.554;2023-04-30T02:55:02;75638.47;;;-143.60;37.55
68329;BME280;55182;56.864;60.554;2023-04-30T02:57:27;75638.47;;;-143.60;37.44
68329;BME280;55182;56.864;60.554;2023-04-30T02:59:53;75632.44;;;-143.60;37.56
68329;BME280;55182;56.864;60.554;2023-04-30T03:02:18;75634.47;;;-143.60;37.51
68329;BME280;55182;56.864;60.554;2023-04-30T03:04:44;75640.50;;;-143.60;37.71
68329;BME280;55182;56.864;60.554;2023-04-30T03:07:09;75638.47;;;-143.60;37.97
68329;BME280;55182;56.864;60.554;2023-04-30T03:09:35;75644.50;;;-143.60;37.86
68329;BME280;55182;56.864;60.554;2023-04-30T03:12:00;75642.50;;;-143.60;37.64
68329;BME280;55182;56.864;60.554;2023-04-30T03:14:26;75636.47;;;-143.60;37.78
68329;BME280;55182;56.864;60.554;2023-04-30T03:16:51;75632.44;;;-143.60;37.78
68329;BME280;55182;56.864;60.554;2023-04-30T03:19:17;75636.47;;;-143.60;37.72
68329;BME280;55182;56.864;60.554;2023-04-30T03:21:43;75638.47;;;-143.60;37.81
68329;BME280;55182;56.864;60.554;2023-04-30T03:24:08;75642.50;;;-143.60;37.83
68329;BME280;55182;56.864;60.554;2023-04-30T03:26:34;75640.50;;;-143.60;37.98
68329;BME280;55182;56.864;60.554;2023-04-30T03:28:59;75644.50;;;-143.60;38.17
68329;BME280;55182;56.864;60.554;2023-04-30T03:31:25;75652.53;;;-143.60;37.85
68329;BME280;55182;56.864;60.554;2023-04-30T03:33:50;75644.50;;;-143.60;37.73
68329;BME280;55182;56.864;60.554;2023-04-30T03:36:16;75636.47;;;-143.60;37.94
68329;BME280;55182;56.864;60.554;2023-04-30T03:38:41;75620.41;;;-143.60;38.28
68329;BME280;55182;56.864;60.554;2023-04-30T03:41:06;75616.38;;;-143.60;38.04
68329;BME280;55182;56.864;60.554;2023-04-30T03:43:32;75616.38;;;-143.60;38.37
68329;BME280;55182;56.864;60.554;2023-04-30T03:45:57;75612.34;;;-143.60;38.03
68329;BME280;55182;56.864;60.554;2023-04-30T03:48:23;75610.34;;;-143.60;37.54
68329;BME280;55182;56.864;60.554;2023-04-30T03:50:49;75600.31;;;-143.60;37.76
68329;BME280;55182;56.864;60.554;2023-04-30T03:53:15;75590.25;;;-143.60;38.24
68329;BME280;55182;56.864;60.554;2023-04-30T03:55:40;75588.25;;;-143.60;38.21
68329;BME280;55182;56.864;60.554;2023-04-30T03:58:06;75568.16;;;-143.60;38.13
68329;BME280;55182;56.864;60.554;2023-04-30T04:00:31;75550.06;;;-143.60;37.36
68329;BME280;55182;56.864;60.554;2023-04-30T04:02:57;75540.03;;;-143.60;37.32
68329;BME280;55182;56.864;60.554;2023-04-30T04:05:23;75544.03;;;-143.60;37.40
68329;BME280;55182;56.864;60.554;2023-04-30T04:07:48;75540.03;;;-143.60;37.89
68329;BME280;55182;56.864;60.554;2023-04-30T04:10:14;75527.97;;;-143.60;37.68
68329;BME280;55182;56.864;60.554;2023-04-30T04:12:40;75525.97;;;-143.60;37.65
68329;BME280;55182;56.864;60.554;2023-04-30T04:15:05;75511.91;;;-143.60;37.61
68329;BME280;55182;56.864;60.554;2023-04-30T04:17:31;75499.84;;;-143.60;37.26
68329;BME280;55182;56.864;60.554;2023-04-30T04:19:56;75503.88;;;-143.60;37.27
68329;BME280;55182;56.864;60.554;2023-04-30T04:22:22;75499.84;;;-143.60;37.15
68329;BME280;55182;56.864;60.554;2023-04-30T04:24:48;75487.78;;;-143.60;37.56
68329;BME280;55182;56.864;60.554;2023-04-30T04:27:18;75471.72;;;-143.60;37.34
68329;BME280;55182;56.864;60.554;2023-04-30T04:29:44;75459.66;;;-143.60;37.14
68329;BME280;55182;56.864;60.554;2023-04-30T04:32:10;75447.59;;;-143.60;36.82
68329;BME280;55182;56.864;60.554;2023-04-30T04:34:38;75435.56;;;-143.60;37.25
68329;BME280;55182;56.864;60.554;2023-04-30T04:37:04;75409.44;;;-143.60;37.21
68329;BME280;55182;56.864;60.554;2023-04-30T04:39:30;75385.31;;;-143.60;37.26
68329;BME280;55182;56.864;60.554;2023-04-30T04:41:55;75357.19;;;-143.60;36.48
68329;BME280;55182;56.864;60.554;2023-04-30T04:44:21;75341.13;;;-143.60;36.04
68329;BME280;55182;56.864;60.554;2023-04-30T04:46:46;75335.09;;;-143.60;36.26
68329;BME280;55182;56.864;60.554;2023-04-30T04:49:12;75337.09;;;-143.60;36.31
68329;BME280;55182;56.864;60.554;2023-04-30T04:51:37;75347.16;;;-143.60;35.92
68329;BME280;55182;56.864;60.554;2023-04-30T04:54:03;75345.16;;;-143.60;36.35
68329;BME280;55182;56.864;60.554;2023-04-30T04:56:29;75345.16;;;-143.60;36.47
68329;BME280;55182;56.864;60.554;2023-04-30T04:58:54;75351.16;;;-143.60;37.01
68329;BME280;55182;56.864;60.554;2023-04-30T05:01:20;75351.16;;;-143.60;36.40
68329;BME280;55182;56.864;60.554;2023-04-30T05:03:45;75347.16;;;-143.60;36.49
68329;BME280;55182;56.864;60.554;2023-04-30T05:06:11;75339.13;;;-143.60;36.32
68329;BME280;55182;56.864;60.554;2023-04-30T05:08:36;75331.06;;;-143.60;36.13
68329;BME280;55182;56.864;60.554;2023-04-30T05:11:02;75321.03;;;-143.60;36.20
68329;BME280;55182;56.864;60.554;2023-04-30T05:13:27;75302.94;;;-143.60;36.09
68329;BME280;55182;56.864;60.554;2023-04-30T05:15:53;75302.94;;;-143.60;36.82
68329;BME280;55182;56.864;60.554;2023-04-30T05:18:19;75282.88;;;-143.60;35.72
68329;BME280;55182;56.864;60.554;2023-04-30T05:20:44;75266.78;;;-143.60;35.52
68329;BME280;55182;56.864;60.554;2023-04-30T05:23:10;75250.72;;;-143.60;35.96
68329;BME280;55182;56.864;60.554;2023-04-30T05:25:35;75216.56;;;-143.60;35.82
68329;BME280;55182;56.864;60.554;2023-04-30T05:28:01;75216.56;;;-143.60;35.45
68329;BME280;55182;56.864;60.554;2023-04-30T05:30:26;75202.50;;;-143.60;34.93
68329;BME280;55182;56.864;60.554;2023-04-30T05:32:52;75182.41;;;-143.60;35.05
68329;BME280;55182;56.864;60.554;2023-04-30T05:35:18;75174.38;;;-143.60;34.80
68329;BME280;55182;56.864;60.554;2023-04-30T05:37:43;75148.25;;;-143.60;34.53
68329;BME280;55182;56.864;60.554;2023-04-30T05:40:09;75130.19;;;-143.60;34.77
68329;BME280;55182;56.864;60.554;2023-04-30T05:42:34;75124.16;;;-143.60;34.34
68329;BME280;55182;56.864;60.554;2023-04-30T05:45:00;75106.06;;;-143.60;33.87
68329;BME280;55182;56.864;60.554;2023-04-30T05:47:26;75094.00;;;-143.60;33.84
68329;BME280;55182;56.864;60.554;2023-04-30T05:49:52;75085.97;;;-143.60;33.79
68329;BME280;55182;56.864;60.554;2023-04-30T05:52:17;75094.00;;;-143.60;33.69
68329;BME280;55182;56.864;60.554;2023-04-30T05:54:42;75104.06;;;-143.60;34.09
68329;BME280;55182;56.864;60.554;2023-04-30T05:57:08;75106.06;;;-143.60;34.13
68329;BME280;55182;56.864;60.554;2023-04-30T05:59:33;75100.03;;;-143.60;34.03
68329;BME280;55182;56.864;60.554;2023-04-30T06:01:59;75102.06;;;-143.60;34.15
68329;BME280;55182;56.864;60.554;2023-04-30T06:04:25;75098.03;;;-143.60;33.88
68329;BME280;55182;56.864;60.554;2023-04-30T06:06:50;75073.94;;;-143.60;34.26
68329;BME280;55182;56.864;60.554;2023-04-30T06:09:18;75063.88;;;-143.60;34.42
68329;BME280;55182;56.864;60.554;2023-04-30T06:11:43;75059.88;;;-143.60;33.94
68329;BME280;55182;56.864;60.554;2023-04-30T06:14:09;75043.78;;;-143.60;33.84
68329;BME280;55182;56.864;60.554;2023-04-30T06:16:36;75023.69;;;-143.60;33.69
68329;BME280;55182;56.864;60.554;2023-04-30T06:19:02;75019.69;;;-143.60;33.32
68329;BME280;55182;56.864;60.554;2023-04-30T06:21:27;75013.66;;;-143.60;33.11
68329;BME280;55182;56.864;60.554;2023-04-30T06:23:53;74989.56;;;-143.60;33.43
68329;BME280;55182;56.864;60.554;2023-04-30T06:26:19;74975.50;;;-143.60;33.01
68329;BME280;55182;56.864;60.554;2023-04-30T06:28:44;74957.41;;;-143.60;33.06
68329;BME280;55182;56.864;60.554;2023-04-30T06:31:10;74973.47;;;-143.60;33.14
68329;BME280;55182;56.864;60.554;2023-04-30T06:33:36;74975.50;;;-143.60;33.07
68329;BME280;55182;56.864;60.554;2023-04-30T06:36:02;74953.41;;;-143.60;32.41
68329;BME280;55182;56.864;60.554;2023-04-30T06:38:28;74957.41;;;-143.60;32.45
68329;BME280;55182;56.864;60.554;2023-04-30T06:40:53;74949.38;;;-143.60;32.60
68329;BME280;55182;56.864;60.554;2023-04-30T06:43:19;74947.38;;;-143.60;32.56
68329;BME280;55182;56.864;60.554;2023-04-30T06:45:44;74945.34;;;-143.60;32.55
68329;BME280;55182;56.864;60.554;2023-04-30T06:48:10;74973.47;;;-143.60;32.53
68329;BME280;55182;56.864;60.554;2023-04-30T06:50:35;74987.53;;;-143.60;32.94
68329;BME280;55182;56.864;60.554;2023-04-30T06:53:00;74989.56;;;-143.60;33.60
68329;BME280;55182;56.864;60.554;2023-04-30T06:55:26;74989.56;;;-143.60;33.74
68329;BME280;55182;56.864;60.554;2023-04-30T06:57:51;74993.56;;;-143.60;33.19
68329;BME280;55182;56.864;60.554;2023-04-30T07:00:17;74989.56;;;-143.60;33.03
68329;BME280;55182;56.864;60.554;2023-04-30T07:02:42;74989.56;;;-143.60;32.65
68329;BME280;55182;56.864;60.554;2023-04-30T07:05:08;74981.50;;;-143.60;32.67
68329;BME280;55182;56.864;60.554;2023-04-30T07:07:33;74989.56;;;-143.60;32.70
68329;BME280;55182;56.864;60.554;2023-04-30T07:09:59;74977.50;;;-143.60;32.75
68329;BME280;55182;56.864;60.554;2023-04-30T07:12:24;74975.50;;;-143.60;32.34
68329;BME280;55182;56.864;60.554;2023-04-30T07:14:50;74961.44;;;-143.60;32.65
68329;BME280;55182;56.864;60.554;2023-04-30T07:17:15;74949.38;;;-143.60;32.75
68329;BME280;55182;56.864;60.554;2023-04-30T07:19:41;74925.28;;;-143.60;32.37
68329;BME280;55182;56.864;60.554;2023-04-30T07:22:06;74929.28;;;-143.60;32.67
68329;BME280;55182;56.864;60.554;2023-04-30T07:24:33;74923.25;;;-143.60;32.57
68329;BME280;55182;56.864;60.554;2023-04-30T07:26:58;74903.16;;;-143.60;32.72
68329;BME280;55182;56.864;60.554;2023-04-30T07:29:24;74915.22;;;-143.60;31.83
68329;BME280;55182;56.864;60.554;2023-04-30T07:31:49;74901.16;;;-143.60;32.71
68329;BME280;55182;56.864;60.554;2023-04-30T07:34:15;74881.06;;;-143.60;32.38
68329;BME280;55182;56.864;60.554;2023-04-30T07:36:40;74869.03;;;-143.60;32.04
68329;BME280;55182;56.864;60.554;2023-04-30T07:39:06;74860.97;;;-143.60;31.91
68329;BME280;55182;56.864;60.554;2023-04-30T07:41:31;74852.94;;;-143.60;31.62
68329;BME280;55182;56.864;60.554;2023-04-30T07:43:57;74852.94;;;-143.60;31.65
68329;BME280;55182;56.864;60.554;2023-04-30T07:46:22;74858.97;;;-143.60;31.47
68329;BME280;55182;56.864;60.554;2023-04-30T07:48:48;74844.91;;;-143.60;31.57
68329;BME280;55182;56.864;60.554;2023-04-30T07:51:13;74834.88;;;-143.60;31.43
68329;BME280;55182;56.864;60.554;2023-04-30T07:53:39;74814.78;;;-143.60;31.59
68329;BME280;55182;56.864;60.554;2023-04-30T07:56:05;74784.66;;;-143.60;32.35
68329;BME280;55182;56.864;60.554;2023-04-30T07:58:30;74744.47;;;-143.60;31.99
68329;BME280;55182;56.864;60.554;2023-04-30T08:00:56;74712.34;;;-143.60;30.84
68329;BME280;55182;56.864;60.554;2023-04-30T08:03:21;74716.34;;;-143.60;30.43
68329;BME280;55182;56.864;60.554;2023-04-30T08:05:47;74704.28;;;-143.60;30.32
68329;BME280;55182;56.864;60.554;2023-04-30T08:08:12;74714.34;;;-143.60;30.43
68329;BME280;55182;56.864;60.554;2023-04-30T08:10:38;74718.34;;;-143.60;30.65
68329;BME280;55182;56.864;60.554;2023-04-30T08:13:04;74704.28;;;-143.60;30.65
68329;BME280;55182;56.864;60.554;2023-04-30T08:15:29;74706.31;;;-143.60;30.74
68329;BME280;55182;56.864;60.554;2023-04-30T08:17:55;74700.28;;;-143.60;31.17
68329;BME280;55182;56.864;60.554;2023-04-30T08:20:21;74672.16;;;-143.60;30.95
68329;BME280;55182;56.864;60.554;2023-04-30T08:22:46;74668.13;;;-143.60;30.67
68329;BME280;55182;56.864;60.554;2023-04-30T08:25:12;74656.09;;;-143.60;30.15
68329;BME280;55182;56.864;60.554;2023-04-30T08:27:37;74668.13;;;-143.60;30.32
68329;BME280;55182;56.864;60.554;2023-04-30T08:30:04;74660.09;;;-143.60;30.32
68329;BME280;55182;56.864;60.554;2023-04-30T08:32:29;74660.09;;;-143.60;30.62
68329;BME280;55182;56.864;60.554;2023-04-30T08:34:55;74658.09;;;-143.60;29.98
68329;BME280;55182;56.864;60.554;2023-04-30T08:37:21;74646.03;;;-143.60;30.19
68329;BME280;55182;56.864;60.554;2023-04-30T08:39:46;74640.03;;;-143.60;30.06
68329;BME280;55182;56.864;60.554;2023-04-30T08:42:12;74631.97;;;-143.60;30.70
68329;BME280;55182;56.864;60.554;2023-04-30T08:44:38;74646.03;;;-143.60;29.82
68329;BME280;55182;56.864;60.554;2023-04-30T08:47:04;74652.06;;;-143.60;30.13
68329;BME280;55182;56.864;60.554;2023-04-30T08:49:32;74678.19;;;-143.60;29.69
68329;BME280;55182;56.864;60.554;2023-04-30T08:51:57;74668.13;;;-143.60;29.77
68329;BME280;55182;56.864;60.554;2023-04-30T08:54:24;74662.13;;;-143.60;30.15
68329;BME280;55182;56.864;60.554;2023-04-30T08:56:50;74644.03;;;-143.60;29.92
68329;BME280;55182;56.864;60.554;2023-04-30T08:59:16;74650.06;;;-143.60;29.64
68329;BME280;55182;56.864;60.554;2023-04-30T09:01:41;74634.00;;;-143.60;29.74
68329;BME280;55182;56.864;60.554;2023-04-30T09:04:07;74627.97;;;-143.60;29.55
68329;BME280;55182;56.864;60.554;2023-04-30T09:06:32;74627.97;;;-143.60;29.66
68329;BME280;55182;56.864;60.554;2023-04-30T09:08:58;74615.91;;;-143.60;30.33
68329;BME280;55182;56.864;60.554;2023-04-30T09:11:32;74611.91;;;-143.60;29.87
68329;BME280;55182;56.864;60.554;2023-04-30T09:13:57;74629.97;;;-143.60;29.26
68329;BME280;55182;56.864;60.554;2023-04-30T09:16:24;74640.03;;;-143.60;29.87
68329;BME280;55182;56.864;60.554;2023-04-30T09:18:49;74636.00;;;-143.60;29.62
68329;BME280;55182;56.864;60.554;2023-04-30T09:21:15;74603.84;;;-143.60;29.77
68329;BME280;55182;56.864;60.554;2023-04-30T09:23:56;74597.84;;;-143.60;29.66
68329;BME280;55182;56.864;60.554;2023-04-30T09:26:29;74595.81;;;-143.60;28.98
68329;BME280;55182;56.864;60.554;2023-04-30T09:28:56;74603.84;;;-143.60;29.17
68329;BME280;55182;56.864;60.554;2023-04-30T09:31:21;74597.84;;;-143.60;29.69
68329;BME280;55182;56.864;60.554;2023-04-30T09:33:47;74595.81;;;-143.60;29.25
68329;BME280;55182;56.864;60.554;2023-04-30T09:36:12;74579.75;;;-143.60;28.97
68329;BME280;55182;56.864;60.554;2023-04-30T09:38:38;74577.75;;;-143.60;29.22
68329;BME280;55182;56.864;60.554;2023-04-30T09:41:03;74575.75;;;-143.60;29.24
68329;BME280;55182;56.864;60.554;2023-04-30T09:43:29;74575.75;;;-143.60;28.98
68329;BME280;55182;56.864;60.554;2023-04-30T09:45:56;74565.69;;;-143.60;28.68
68329;BME280;55182;56.864;60.554;2023-04-30T09:48:22;74575.75;;;-143.60;28.58
68329;BME280;55182;56.864;60.554;2023-04-30T09:50:48;74567.72;;;-143.60;29.05
68329;BME280;55182;56.864;60.554;2023-04-30T09:53:14;74587.78;;;-143.60;28.52
68329;BME280;55182;56.864;60.554;2023-04-30T09:55:41;74595.81;;;-143.60;28.88
68329;BME280;55182;56.864;60.554;2023-04-30T09:58:08;74597.84;;;-143.60;29.00
68329;BME280;55182;56.864;60.554;2023-04-30T10:00:34;74603.84;;;-143.60;28.64
68329;BME280;55182;56.864;60.554;2023-04-30T10:03:03;74636.00;;;-143.60;28.90
68329;BME280;55182;56.864;60.554;2023-04-30T10:05:29;74664.13;;;-143.60;29.50
68329;BME280;55182;56.864;60.554;2023-04-30T10:07:56;74676.19;;;-143.60;29.20
68329;BME280;55182;56.864;60.554;2023-04-30T10:10:21;74682.19;;;-143.60;29.36
68329;BME280;55182;56.864;60.554;2023-04-30T10:12:51;74678.19;;;-143.60;29.57
68329;BME280;55182;56.864;60.554;2023-04-30T10:17:53;74692.25;;;-143.60;30.03
68329;BME280;55182;56.864;60.554;2023-04-30T10:20:21;74696.25;;;-143.60;30.01
68329;BME280;55182;56.864;60.554;2023-04-30T10:22:48;74692.25;;;-143.60;29.56
68329;BME280;55182;56.864;60.554;2023-04-30T10:25:14;74688.22;;;-143.60;29.74
68329;BME280;55182;56.864;60.554;2023-04-30T10:27:39;74660.09;;;-143.60;29.69
68329;BME280;55182;56.864;60.554;2023-04-30T10:30:05;74652.06;;;-143.60;29.19
68329;BME280;55182;56.864;60.554;2023-04-30T10:32:36;74652.06;;;-143.60;29.03
68329;BME280;55182;56.864;60.554;2023-04-30T10:35:11;74625.97;;;-143.60;29.33
68329;BME280;55182;56.864;60.554;2023-04-30T10:37:42;74631.97;;;-143.60;28.98
68329;BME280;55182;56.864;60.554;2023-04-30T10:40:08;74644.03;;;-143.60;29.10
68329;BME280;55182;56.864;60.554;2023-04-30T10:42:34;74640.03;;;-143.60;28.98
68329;BME280;55182;56.864;60.554;2023-04-30T10:45:00;74629.97;;;-143.60;29.08
68329;BME280;55182;56.864;60.554;2023-04-30T10:47:27;74603.84;;;-143.60;29.44
68329;BME280;55182;56.864;60.554;2023-04-30T10:50:00;74583.78;;;-143.60;29.16
68329;BME280;55182;56.864;60.554;2023-04-30T10:52:26;74587.78;;;-143.60;28.45
68329;BME280;55182;56.864;60.554;2023-04-30T10:54:53;74585.78;;;-143.60;28.21
68329;BME280;55182;56.864;60.554;2023-04-30T10:57:18;74597.84;;;-143.60;28.28
68329;BME280;55182;56.864;60.554;2023-04-30T10:59:51;74609.88;;;-143.60;28.58
68329;BME280;55182;56.864;60.554;2023-04-30T11:02:17;74644.03;;;-143.60;28.53
68329;BME280;55182;56.864;60.554;2023-04-30T11:07:27;74676.19;;;-143.60;29.22
68329;BME280;55182;56.864;60.554;2023-04-30T11:09:52;74688.22;;;-143.60;28.97
68329;BME280;55182;56.864;60.554;2023-04-30T11:12:21;74692.25;;;-143.60;29.28
68329;BME280;55182;56.864;60.554;2023-04-30T11:14:46;74688.22;;;-143.60;29.93
68329;BME280;55182;56.864;60.554;2023-04-30T11:17:21;74678.19;;;-143.60;29.58
68329;BME280;55182;56.864;60.554;2023-04-30T11:19:48;74688.22;;;-143.60;29.90
68329;BME280;55182;56.864;60.554;2023-04-30T11:22:15;74676.19;;;-143.60;30.18
68329;BME280;55182;56.864;60.554;2023-04-30T11:24:50;74662.13;;;-143.60;29.25
68329;BME280;55182;56.864;60.554;2023-04-30T11:27:19;74660.09;;;-143.60;29.16
68329;BME280;55182;56.864;60.554;2023-04-30T11:29:45;74664.13;;;-143.60;29.20
68329;BME280;55182;56.864;60.554;2023-04-30T11:32:11;74658.09;;;-143.60;29.25
68329;BME280;55182;56.864;60.554;2023-04-30T11:34:37;74660.09;;;-143.60;29.77
68329;BME280;55182;56.864;60.554;2023-04-30T11:37:02;74654.06;;;-143.60;29.39
68329;BME280;55182;56.864;60.554;2023-04-30T11:39:28;74640.03;;;-143.60;29.31
68329;BME280;55182;56.864;60.554;2023-04-30T11:41:53;74629.97;;;-143.60;29.11
68329;BME280;55182;56.864;60.554;2023-04-30T11:44:24;74615.91;;;-143.60;28.84
68329;BME280;55182;56.864;60.554;2023-04-30T11:46:50;74599.84;;;-143.60;28.69
68329;BME280;55182;56.864;60.554;2023-04-30T11:49:16;74583.78;;;-143.60;28.87
68329;BME280;55182;56.864;60.554;2023-04-30T11:51:41;74575.75;;;-143.60;28.84
68329;BME280;55182;56.864;60.554;2023-04-30T11:54:07;74563.69;;;-143.60;28.63
68329;BME280;55182;56.864;60.554;2023-04-30T11:56:36;74535.56;;;-143.60;28.95
68329;BME280;55182;56.864;60.554;2023-04-30T11:59:07;74523.50;;;-143.60;28.54
68329;BME280;55182;56.864;60.554;2023-04-30T12:01:33;74537.56;;;-143.60;28.89
68329;BME280;55182;56.864;60.554;2023-04-30T12:04:00;74579.75;;;-143.60;28.72
68329;BME280;55182;56.864;60.554;2023-04-30T12:06:26;74607.88;;;-143.60;28.99
68329;BME280;55182;56.864;60.554;2023-04-30T12:08:52;74619.94;;;-143.60;29.27
68329;BME280;55182;56.864;60.554;2023-04-30T12:11:27;74636.00;;;-143.60;29.27
68329;BME280;55182;56.864;60.554;2023-04-30T12:13:53;74662.13;;;-143.60;29.69
68329;BME280;55182;56.864;60.554;2023-04-30T12:16:19;74676.19;;;-143.60;29.61
68329;BME280;55182;56.864;60.554;2023-04-30T12:18:47;74676.19;;;-143.60;29.54
68329;BME280;55182;56.864;60.554;2023-04-30T12:21:12;74668.13;;;-143.60;29.62
68329;BME280;55182;56.864;60.554;2023-04-30T12:23:39;74676.19;;;-143.60;29.47
68329;BME280;55182;56.864;60.554;2023-04-30T12:26:04;74676.19;;;-143.60;29.73
68329;BME280;55182;56.864;60.554;2023-04-30T12:28:30;74670.16;;;-143.60;29.74
68329;BME280;55182;56.864;60.554;2023-04-30T12:30:55;74688.22;;;-143.60;29.69
68329;BME280;55182;56.864;60.554;2023-04-30T12:33:21;74696.25;;;-143.60;30.04
68329;BME280;55182;56.864;60.554;2023-04-30T12:35:46;74720.38;;;-143.60;30.24
68329;BME280;55182;56.864;60.554;2023-04-30T12:38:15;74738.44;;;-143.60;30.63
68329;BME280;55182;56.864;60.554;2023-04-30T12:40:45;74754.50;;;-143.60;30.73
68329;BME280;55182;56.864;60.554;2023-04-30T12:43:13;74768.56;;;-143.60;30.73